Time;durP1;ratioP1;P1;durP2;ratioP2;P2;SDS_P1;SDS_P2;PMS_P1;PMS_P2;Temp;Humidity;BMP_temperature;BMP_pressure;BME280_temperature;BME280_humidity;BME280_pressure;Samples;Min_cycle;Max_cycle;Signal;HPM_P1;HPM_P2
2022/03/29 00:00:18;;;;;;;28.73;19.47;;;7.00;99.90;;;;;;5050216;28;20464;-33
2022/03/29 00:02:44;;;;;;;30.63;19.97;;;7.10;99.90;;;;;;5061283;28;20052;-34
2022/03/29 00:05:10;;;;;;;36.07;20.53;;;7.00;99.90;;;;;;5046919;28;20110;-33
2022/03/29 00:07:36;;;;;;;28.03;18.47;;;7.00;99.90;;;;;;5026157;28;20581;-34
2022/03/29 00:10:07;;;;;;;30.13;19.20;;;7.00;99.90;;;;;;5043440;28;20033;-34
2022/03/29 00:12:36;;;;;;;29.98;19.50;;;7.00;99.90;;;;;;5042175;28;20094;-35
2022/03/29 00:15:04;;;;;;;34.87;19.80;;;7.00;99.90;;;;;;5025297;28;20099;-35
2022/03/29 00:17:29;;;;;;;30.07;18.50;;;7.00;99.90;;;;;;5032503;28;20041;-34
2022/03/29 00:19:55;;;;;;;31.80;19.50;;;7.00;99.90;;;;;;5046047;28;20052;-35
2022/03/29 00:22:21;;;;;;;29.07;18.80;;;7.00;99.90;;;;;;5043655;28;20045;-33
2022/03/29 00:24:46;;;;;;;30.43;18.57;;;7.00;99.90;;;;;;5045535;28;20149;-35
2022/03/29 00:27:13;;;;;;;29.43;17.83;;;7.00;99.90;;;;;;5028728;28;20397;-32
2022/03/29 00:29:39;;;;;;;32.03;18.27;;;7.00;99.90;;;;;;5056591;28;20057;-35
2022/03/29 00:32:05;;;;;;;29.87;18.43;;;7.00;99.90;;;;;;5051578;28;20056;-32
2022/03/29 00:34:30;;;;;;;32.50;17.87;;;7.00;99.90;;;;;;5045580;28;20052;-36
2022/03/29 00:36:56;;;;;;;30.23;17.97;;;7.00;99.90;;;;;;5030047;28;20140;-34
2022/03/29 00:39:21;;;;;;;30.47;18.17;;;7.10;99.90;;;;;;5045620;28;20048;-32
2022/03/29 00:41:47;;;;;;;28.97;18.63;;;7.00;99.90;;;;;;5047864;28;20048;-35
2022/03/29 00:44:15;;;;;;;36.47;20.07;;;7.10;99.90;;;;;;5047025;28;20102;-34
2022/03/29 00:46:41;;;;;;;33.83;20.23;;;7.00;99.90;;;;;;5032149;28;20045;-33
2022/03/29 00:49:07;;;;;;;30.30;18.33;;;7.10;99.90;;;;;;5049120;28;20396;-34
2022/03/29 00:51:34;;;;;;;31.57;18.80;;;7.00;99.90;;;;;;5065569;28;20495;-34
2022/03/29 00:54:00;;;;;;;30.03;19.40;;;7.00;99.90;;;;;;5064401;28;20056;-35
2022/03/29 00:56:26;;;;;;;31.57;19.97;;;7.00;99.90;;;;;;5036163;28;20499;-36
2022/03/29 00:58:52;;;;;;;26.53;18.37;;;7.00;99.90;;;;;;5041653;28;20053;-34
2022/03/29 01:01:18;;;;;;;34.13;19.10;;;7.00;99.90;;;;;;5061839;28;20044;-35
2022/03/29 01:03:45;;;;;;;31.27;19.23;;;7.00;99.90;;;;;;5058405;28;20487;-33
2022/03/29 01:06:11;;;;;;;30.87;18.67;;;7.00;99.90;;;;;;5043003;28;20128;-35
2022/03/29 01:08:37;;;;;;;35.47;19.57;;;7.00;99.90;;;;;;5036702;28;20344;-34
2022/03/29 01:11:06;;;;;;;33.93;18.67;;;7.10;99.90;;;;;;5044880;28;20091;-35
2022/03/29 01:13:32;;;;;;;31.97;19.37;;;7.00;99.90;;;;;;5056774;28;20518;-35
2022/03/29 01:17:38;;;;;;;35.87;20.50;;;7.00;99.90;;;;;;5064146;28;20447;-34
2022/03/29 01:18:48;;;;;;;35.10;21.27;;;7.10;99.90;;;;;;5041282;28;20053;-35
2022/03/29 01:21:19;;;;;;;33.53;20.77;;;6.90;99.90;;;;;;5046070;28;20064;-32
2022/03/29 01:23:47;;;;;;;35.40;20.70;;;6.90;99.90;;;;;;5044646;28;20136;-33
2022/03/29 01:26:16;;;;;;;36.30;22.03;;;6.90;99.90;;;;;;5040879;28;20040;-35
2022/03/29 01:28:42;;;;;;;32.67;20.87;;;6.90;99.90;;;;;;5037754;28;20261;-35
2022/03/29 01:31:09;;;;;;;34.33;21.70;;;6.90;99.90;;;;;;5044919;28;20167;-35
2022/03/29 01:33:35;;;;;;;38.10;22.13;;;6.90;99.90;;;;;;5044164;28;20057;-34
2022/03/29 01:36:02;;;;;;;36.70;23.20;;;6.90;99.90;;;;;;5046748;28;20056;-32
2022/03/29 01:38:28;;;;;;;40.73;23.97;;;6.90;99.90;;;;;;5048994;28;20079;-32
2022/03/29 01:41:01;;;;;;;35.70;22.10;;;6.90;99.90;;;;;;5051688;28;20073;-34
2022/03/29 01:43:26;;;;;;;36.60;21.03;;;6.90;99.90;;;;;;5043569;28;20045;-34
2022/03/29 01:45:52;;;;;;;36.67;22.33;;;6.90;99.90;;;;;;5044452;28;20395;-34
2022/03/29 01:48:18;;;;;;;39.77;22.33;;;6.90;99.90;;;;;;5011194;28;20056;-35
2022/03/29 01:50:45;;;;;;;40.73;21.93;;;6.80;99.90;;;;;;5064786;28;20048;-33
2022/03/29 01:53:28;;;;;;;40.07;23.53;;;6.90;99.90;;;;;;5064303;28;20040;-33
2022/03/29 01:55:58;;;;;;;39.77;22.70;;;6.90;99.90;;;;;;5050408;28;20068;-34
2022/03/29 01:58:30;;;;;;;34.83;22.37;;;6.80;99.90;;;;;;5027982;28;20239;-32
2022/03/29 02:00:56;;;;;;;38.73;21.93;;;6.80;99.90;;;;;;5031123;28;20088;-34
2022/03/29 02:03:22;;;;;;;40.17;23.50;;;6.80;99.90;;;;;;5043775;28;20068;-34
2022/03/29 02:05:49;;;;;;;37.27;22.27;;;6.80;99.90;;;;;;5047143;28;20071;-35
2022/03/29 02:08:14;;;;;;;40.10;23.17;;;6.80;99.90;;;;;;5028452;28;20119;-35
2022/03/29 02:10:40;;;;;;;37.87;22.93;;;6.80;99.90;;;;;;5052944;28;20478;-33
2022/03/29 02:13:09;;;;;;;36.70;21.90;;;6.80;99.90;;;;;;5043912;28;20052;-34
2022/03/29 02:15:36;;;;;;;34.87;21.83;;;6.80;99.90;;;;;;5057672;28;20095;-32
2022/03/29 02:18:02;;;;;;;35.03;21.83;;;6.80;99.90;;;;;;5046447;28;20036;-36
2022/03/29 02:20:28;;;;;;;37.93;22.83;;;6.80;99.90;;;;;;5062777;28;20047;-32
2022/03/29 02:22:54;;;;;;;37.53;22.93;;;6.80;99.90;;;;;;5063540;28;20082;-35
2022/03/29 02:25:21;;;;;;;44.43;23.53;;;6.80;99.90;;;;;;5055989;28;20057;-34
2022/03/29 02:27:47;;;;;;;37.73;22.47;;;6.70;99.90;;;;;;5027235;28;20297;-34
2022/03/29 02:30:15;;;;;;;38.17;22.47;;;6.80;99.90;;;;;;5058723;28;20403;-33
2022/03/29 02:32:43;;;;;;;37.87;23.77;;;6.80;99.90;;;;;;5063404;28;20040;-34
2022/03/29 02:35:09;;;;;;;45.27;23.93;;;6.90;99.90;;;;;;5048609;28;20057;-33
2022/03/29 02:37:35;;;;;;;37.63;22.83;;;6.70;99.90;;;;;;5028080;28;20041;-34
2022/03/29 02:40:03;;;;;;;38.73;23.47;;;6.80;99.90;;;;;;5043043;28;20557;-35
2022/03/29 02:42:29;;;;;;;38.70;22.10;;;6.70;99.90;;;;;;5059779;28;20499;-33
2022/03/29 02:44:55;;;;;;;35.30;23.07;;;6.80;99.90;;;;;;5062375;28;20059;-34
2022/03/29 02:47:20;;;;;;;37.07;23.27;;;6.70;99.90;;;;;;5047513;28;20491;-36
2022/03/29 02:49:47;;;;;;;40.03;23.70;;;6.70;99.90;;;;;;5050566;28;20056;-32
2022/03/29 02:52:13;;;;;;;44.40;23.13;;;6.70;99.90;;;;;;5042711;28;20570;-35
2022/03/29 02:54:39;;;;;;;37.83;22.23;;;6.70;99.90;;;;;;5042959;28;20045;-35
2022/03/29 02:57:05;;;;;;;40.40;23.13;;;6.70;99.90;;;;;;5027471;28;20045;-33
2022/03/29 02:59:31;;;;;;;38.40;23.13;;;6.70;99.90;;;;;;5044568;28;20231;-34
2022/03/29 03:01:57;;;;;;;38.77;22.83;;;6.80;99.90;;;;;;5062650;28;20059;-32
2022/03/29 03:04:22;;;;;;;40.87;23.23;;;6.70;99.90;;;;;;5051455;28;20381;-34
2022/03/29 03:06:48;;;;;;;38.07;21.63;;;6.70;99.90;;;;;;5029463;28;20124;-34
2022/03/29 03:09:14;;;;;;;36.50;22.87;;;6.70;99.90;;;;;;5041375;28;20048;-31
2022/03/29 03:11:39;;;;;;;38.37;23.27;;;6.70;99.90;;;;;;5042696;28;20049;-35
2022/03/29 03:14:05;;;;;;;37.60;22.87;;;6.70;99.90;;;;;;5042256;28;20084;-31
2022/03/29 03:16:31;;;;;;;44.03;22.67;;;6.70;99.90;;;;;;5029223;28;20523;-36
2022/03/29 03:18:56;;;;;;;37.63;22.43;;;6.70;99.90;;;;;;5040630;28;20037;-32
2022/03/29 03:21:22;;;;;;;38.50;22.50;;;6.70;99.90;;;;;;5043586;28;20045;-34
2022/03/29 03:23:48;;;;;;;39.87;22.57;;;6.70;99.90;;;;;;5045601;28;20056;-36
2022/03/29 03:26:14;;;;;;;42.33;23.00;;;6.60;99.90;;;;;;5038088;28;20539;-35
2022/03/29 03:28:40;;;;;;;37.97;22.63;;;6.70;99.90;;;;;;5035747;28;20083;-33
2022/03/29 03:31:05;;;;;;;38.57;23.63;;;6.70;99.90;;;;;;5042949;28;20037;-34
2022/03/29 03:33:31;;;;;;;36.20;22.97;;;6.70;99.90;;;;;;5043414;28;20355;-32
2022/03/29 03:35:57;;;;;;;37.93;22.63;;;6.80;99.90;;;;;;5042857;28;20037;-34
2022/03/29 03:38:22;;;;;;;38.57;22.63;;;6.70;99.90;;;;;;5028025;28;20416;-34
2022/03/29 03:40:48;;;;;;;37.83;23.03;;;6.60;99.90;;;;;;5041946;28;20489;-35
2022/03/29 03:43:14;;;;;;;37.17;22.73;;;6.70;99.90;;;;;;5042588;28;20479;-35
2022/03/29 03:45:39;;;;;;;42.57;22.93;;;6.70;99.90;;;;;;5062204;28;20044;-33
2022/03/29 03:48:06;;;;;;;39.87;23.87;;;6.70;99.90;;;;;;5046818;28;20064;-35
2022/03/29 03:50:32;;;;;;;37.67;22.77;;;6.70;99.90;;;;;;5043064;28;20045;-35
2022/03/29 03:53:00;;;;;;;41.80;21.93;;;6.70;99.90;;;;;;5046769;28;20417;-33
2022/03/29 03:55:26;;;;;;;39.47;23.30;;;6.60;99.90;;;;;;5045879;28;20045;-34
2022/03/29 03:57:52;;;;;;;41.67;23.50;;;6.70;99.90;;;;;;5030586;28;20047;-35
2022/03/29 04:00:21;;;;;;;38.43;23.47;;;6.70;99.90;;;;;;5054743;28;20033;-36
2022/03/29 04:02:49;;;;;;;42.00;23.90;;;6.70;99.90;;;;;;5064088;28;20145;-34
2022/03/29 04:05:15;;;;;;;41.47;24.67;;;6.70;99.90;;;;;;5054718;28;20549;-35
2022/03/29 04:07:41;;;;;;;41.43;23.47;;;6.80;99.90;;;;;;5038370;28;20076;-36
2022/03/29 04:10:08;;;;;;;38.97;23.73;;;6.70;99.90;;;;;;5046672;28;20178;-32
2022/03/29 04:12:34;;;;;;;43.30;25.00;;;6.70;99.90;;;;;;5046051;28;20045;-35
2022/03/29 04:15:00;;;;;;;45.00;25.17;;;6.70;99.90;;;;;;5050166;28;20052;-32
2022/03/29 04:17:26;;;;;;;41.63;24.10;;;6.70;99.90;;;;;;5036982;28;20041;-35
2022/03/29 04:19:52;;;;;;;40.87;23.87;;;6.70;99.90;;;;;;5053916;28;20488;-33
2022/03/29 04:22:18;;;;;;;42.40;24.40;;;6.60;99.90;;;;;;5055731;28;20928;-35
2022/03/29 04:24:47;;;;;;;46.17;25.63;;;6.60;99.90;;;;;;5048602;28;20562;-35
2022/03/29 04:27:13;;;;;;;38.93;24.37;;;6.70;99.90;;;;;;5038799;28;20063;-36
2022/03/29 04:29:39;;;;;;;40.53;24.70;;;6.80;99.90;;;;;;5047259;28;20056;-32
2022/03/29 04:32:05;;;;;;;42.23;24.37;;;6.70;99.90;;;;;;5044001;28;20176;-34
2022/03/29 04:34:30;;;;;;;40.97;23.97;;;6.70;99.90;;;;;;5046744;28;20047;-34
2022/03/29 04:36:58;;;;;;;43.73;24.23;;;6.80;99.90;;;;;;5033978;28;20045;-35
2022/03/29 04:39:25;;;;;;;44.30;23.77;;;6.60;99.90;;;;;;5046225;28;20052;-32
2022/03/29 04:41:50;;;;;;;38.20;23.80;;;6.70;99.90;;;;;;5045101;28;20068;-35
2022/03/29 04:44:16;;;;;;;47.30;25.47;;;6.70;99.90;;;;;;5045621;28;20041;-34
2022/03/29 04:46:42;;;;;;;41.87;23.73;;;6.50;99.90;;;;;;5052211;28;20337;-34
2022/03/29 04:49:07;;;;;;;46.33;26.60;;;6.60;99.90;;;;;;5053723;28;20423;-35
2022/03/29 04:51:34;;;;;;;38.00;25.30;;;6.70;99.90;;;;;;5051965;28;20044;-35
2022/03/29 04:54:01;;;;;;;42.83;23.80;;;6.70;99.90;;;;;;5064985;28;20102;-34
2022/03/29 04:56:28;;;;;;;41.07;24.93;;;6.60;99.90;;;;;;5036178;28;20606;-35
2022/03/29 04:58:53;;;;;;;43.37;24.43;;;6.60;99.90;;;;;;5040407;28;20059;-34
2022/03/29 05:01:20;;;;;;;44.80;26.23;;;6.60;99.90;;;;;;5061940;28;20175;-35
2022/03/29 05:03:46;;;;;;;40.20;24.63;;;6.70;99.90;;;;;;5053795;28;20516;-34
2022/03/29 05:06:11;;;;;;;45.20;27.17;;;6.60;99.90;;;;;;5039286;28;20071;-36
2022/03/29 05:08:37;;;;;;;48.00;26.07;;;6.60;99.90;;;;;;5036784;28;20799;-35
2022/03/29 05:11:03;;;;;;;46.20;25.90;;;6.60;99.90;;;;;;5047211;28;20454;-33
2022/03/29 05:13:29;;;;;;;48.17;25.40;;;6.60;99.90;;;;;;5053173;28;20151;-33
2022/03/29 05:15:55;;;;;;;42.17;25.50;;;6.60;99.90;;;;;;5065154;28;20048;-33
2022/03/29 05:18:21;;;;;;;47.07;26.03;;;6.70;99.90;;;;;;5049425;28;20060;-36
2022/03/29 05:20:46;;;;;;;49.47;26.03;;;6.60;99.90;;;;;;5063081;28;20064;-32
2022/03/29 05:23:15;;;;;;;44.87;25.77;;;6.60;99.90;;;;;;5046810;28;20040;-35
2022/03/29 05:25:41;;;;;;;45.30;26.53;;;6.60;99.90;;;;;;5054178;28;20480;-36
2022/03/29 05:28:09;;;;;;;47.57;27.93;;;6.60;99.90;;;;;;5028844;28;20057;-35
2022/03/29 05:30:34;;;;;;;48.43;27.73;;;6.60;99.90;;;;;;5044631;28;20060;-35
2022/03/29 05:33:00;;;;;;;44.33;26.00;;;6.60;99.90;;;;;;5045319;28;20080;-34
2022/03/29 05:35:30;;;;;;;49.80;26.67;;;6.60;99.90;;;;;;5044392;28;20124;-34
2022/03/29 05:37:57;;;;;;;48.50;27.53;;;6.60;99.90;;;;;;5047914;28;20072;-35
2022/03/29 05:40:25;;;;;;;46.70;27.10;;;6.60;99.90;;;;;;5056058;28;20060;-35
2022/03/29 05:42:52;;;;;;;49.00;27.03;;;6.60;99.90;;;;;;5044410;28;20079;-35
2022/03/29 05:45:18;;;;;;;43.50;25.93;;;6.60;99.90;;;;;;5043909;28;20060;-36
2022/03/29 05:50:28;;;;;;;53.30;26.73;;;6.60;99.90;;;;;;5061329;28;20519;-36
2022/03/29 05:52:55;;;;;;;42.50;26.83;;;6.60;99.90;;;;;;5044188;28;20045;-35
2022/03/29 05:55:22;;;;;;;49.27;26.20;;;6.60;99.90;;;;;;5043908;28;20045;-32
2022/03/29 05:57:49;;;;;;;48.63;26.53;;;6.60;99.90;;;;;;5027449;28;20060;-35
2022/03/29 06:00:17;;;;;;;47.40;26.43;;;6.70;99.90;;;;;;5052352;28;20045;-36
2022/03/29 06:02:43;;;;;;;44.80;25.17;;;6.70;99.90;;;;;;5059661;28;20041;-36
2022/03/29 06:05:10;;;;;;;50.23;26.73;;;6.60;99.90;;;;;;5045487;28;20052;-35
2022/03/29 06:07:36;;;;;;;53.57;26.83;;;6.70;99.90;;;;;;5038751;28;20114;-33
2022/03/29 06:10:04;;;;;;;49.77;28.27;;;6.70;99.90;;;;;;5055272;28;20041;-34
2022/03/29 06:12:30;;;;;;;55.53;27.03;;;6.70;99.90;;;;;;5043418;28;20083;-35
2022/03/29 06:14:56;;;;;;;47.57;25.97;;;6.60;99.90;;;;;;5043367;28;20077;-35
2022/03/29 06:17:21;;;;;;;56.10;27.37;;;6.70;99.90;;;;;;5027704;28;20055;-35
2022/03/29 06:19:47;;;;;;;46.33;26.83;;;6.60;99.90;;;;;;5043487;28;20053;-34
2022/03/29 06:22:13;;;;;;;47.17;27.10;;;6.70;99.90;;;;;;5060009;28;20045;-34
2022/03/29 06:24:39;;;;;;;45.17;26.47;;;6.70;99.90;;;;;;5062212;28;20052;-35
2022/03/29 06:27:05;;;;;;;50.63;26.90;;;6.70;99.90;;;;;;5027464;28;20546;-35
2022/03/29 06:29:31;;;;;;;47.97;27.00;;;6.70;99.90;;;;;;5045604;28;20041;-33
2022/03/29 06:31:57;;;;;;;41.77;26.40;;;6.70;99.90;;;;;;5046656;28;20041;-34
2022/03/29 06:34:22;;;;;;;46.00;27.97;;;6.70;99.90;;;;;;5046949;28;20422;-36
2022/03/29 06:36:48;;;;;;;47.97;27.33;;;6.70;99.90;;;;;;5033560;28;20041;-36
2022/03/29 06:39:14;;;;;;;46.17;28.33;;;6.70;99.90;;;;;;5053781;28;20091;-36
2022/03/29 06:41:42;;;;;;;53.93;28.03;;;6.70;99.90;;;;;;5047926;28;20052;-36
2022/03/29 06:44:08;;;;;;;44.73;26.00;;;6.80;99.90;;;;;;5043679;28;20232;-34
2022/03/29 06:46:35;;;;;;;43.50;27.57;;;6.80;99.90;;;;;;5028798;28;20678;-32
2022/03/29 06:49:02;;;;;;;43.93;27.37;;;6.90;99.90;;;;;;5040922;28;20392;-35
2022/03/29 06:51:33;;;;;;;47.17;28.27;;;6.80;99.90;;;;;;5039962;28;20119;-36
2022/03/29 06:53:59;;;;;;;49.20;27.33;;;6.80;99.90;;;;;;5045175;28;20040;-35
2022/03/29 06:56:26;;;;;;;46.57;28.83;;;6.80;99.90;;;;;;5035214;28;20037;-34
2022/03/29 06:58:53;;;;;;;49.23;28.67;;;6.80;99.90;;;;;;5044156;28;20045;-33
2022/03/29 07:01:19;;;;;;;48.03;27.90;;;6.80;99.90;;;;;;5044392;28;20056;-36
2022/03/29 07:03:44;;;;;;;50.70;28.63;;;6.90;99.90;;;;;;5042942;28;20443;-35
2022/03/29 07:06:10;;;;;;;50.43;28.83;;;6.80;99.90;;;;;;5037123;28;20048;-35
2022/03/29 07:11:15;;;;;;;47.70;27.40;;;6.80;99.90;;;;;;5033816;28;20049;-33
2022/03/29 07:11:24;;;;;;;49.33;28.03;;;6.90;99.90;;;;;;5046637;28;20048;-36
2022/03/29 07:13:50;;;;;;;51.20;28.70;;;6.90;99.90;;;;;;5057378;28;20511;-36
2022/03/29 07:16:16;;;;;;;54.20;29.70;;;6.90;99.90;;;;;;5038695;28;20052;-35
2022/03/29 07:18:42;;;;;;;52.60;28.57;;;7.00;99.90;;;;;;5042987;28;20040;-35
2022/03/29 07:21:12;;;;;;;55.43;27.80;;;7.00;99.90;;;;;;5052238;28;20400;-34
2022/03/29 07:23:39;;;;;;;53.30;28.23;;;7.00;99.90;;;;;;5049587;28;20045;-37
2022/03/29 07:26:05;;;;;;;50.20;27.03;;;7.10;99.90;;;;;;5062762;28;20526;-36
2022/03/29 07:28:31;;;;;;;51.07;27.50;;;7.10;99.90;;;;;;5052405;28;20124;-33
2022/03/29 07:30:57;;;;;;;45.60;25.37;;;7.10;99.90;;;;;;5069986;28;20044;-34
2022/03/29 07:33:23;;;;;;;51.27;27.97;;;7.20;99.90;;;;;;5062644;28;20040;-36
2022/03/29 07:35:49;;;;;;;50.87;28.27;;;7.20;99.90;;;;;;5069231;28;20051;-35
2022/03/29 07:38:15;;;;;;;48.10;27.10;;;7.30;99.90;;;;;;5054701;28;20052;-34
2022/03/29 07:40:42;;;;;;;60.97;27.70;;;7.30;99.90;;;;;;5056866;28;20068;-36
2022/03/29 07:43:11;;;;;;;50.53;26.53;;;7.40;99.90;;;;;;5047134;28;20182;-37
2022/03/29 07:45:38;;;;;;;49.20;25.87;;;7.40;99.90;;;;;;5047320;28;20064;-36
2022/03/29 07:48:04;;;;;;;49.57;26.77;;;7.50;99.90;;;;;;5033878;28;20049;-35
2022/03/29 07:50:32;;;;;;;48.33;25.87;;;7.50;99.90;;;;;;5067647;28;20117;-33
2022/03/29 07:52:59;;;;;;;49.40;25.67;;;7.50;99.90;;;;;;5069412;28;20043;-35
2022/03/29 07:55:26;;;;;;;47.07;25.63;;;7.60;99.90;;;;;;5058500;28;20044;-36
2022/03/29 07:57:52;;;;;;;50.07;25.03;;;7.60;99.90;;;;;;5051301;28;20052;-35
2022/03/29 08:00:35;;;;;;;46.60;24.67;;;7.70;99.90;;;;;;5061743;28;20052;-35
2022/03/29 08:03:06;;;;;;;46.37;24.27;;;7.70;99.90;;;;;;5048617;28;20048;-35
2022/03/29 08:05:36;;;;;;;46.40;23.53;;;7.80;99.90;;;;;;5050740;28;20049;-35
2022/03/29 08:08:03;;;;;;;42.90;24.33;;;7.80;99.90;;;;;;5053552;28;20048;-36
2022/03/29 08:10:31;;;;;;;40.90;22.73;;;7.90;99.90;;;;;;5062028;28;20643;-36
2022/03/29 08:13:06;;;;;;;38.03;22.00;;;7.90;99.90;;;;;;5052250;28;20453;-36
2022/03/29 08:15:32;;;;;;;38.10;20.83;;;7.90;99.90;;;;;;5049327;28;20045;-34
2022/03/29 08:17:58;;;;;;;41.97;21.70;;;7.90;99.90;;;;;;5037194;28;20094;-36
2022/03/29 08:20:25;;;;;;;43.80;20.87;;;8.00;99.90;;;;;;5067575;28;20060;-36
2022/03/29 08:22:53;;;;;;;45.97;20.20;;;8.00;99.90;;;;;;5064698;28;20513;-36
2022/03/29 08:25:21;;;;;;;37.00;19.63;;;8.00;99.90;;;;;;5048822;28;20119;-35
2022/03/29 08:27:49;;;;;;;37.77;19.43;;;8.00;99.90;;;;;;5038609;28;20515;-34
2022/03/29 08:30:15;;;;;;;41.40;19.07;;;8.10;99.90;;;;;;5052705;28;20052;-36
2022/03/29 08:32:42;;;;;;;44.73;18.40;;;8.10;99.90;;;;;;5055989;28;20085;-36
2022/03/29 08:35:12;;;;;;;39.20;16.90;;;8.10;99.90;;;;;;5069140;28;20052;-35
2022/03/29 08:37:39;;;;;;;41.60;17.30;;;8.10;99.90;;;;;;5034732;28;20071;-36
2022/03/29 08:40:21;;;;;;;35.20;15.67;;;8.20;99.90;;;;;;5052925;28;20061;-35
2022/03/29 08:42:49;;;;;;;40.23;16.10;;;8.20;99.90;;;;;;5063540;28;20474;-34
2022/03/29 08:45:17;;;;;;;35.23;16.00;;;8.20;99.90;;;;;;5066634;28;20097;-33
2022/03/29 08:47:45;;;;;;;35.23;14.87;;;8.20;99.90;;;;;;5048564;28;20415;-36
2022/03/29 08:50:14;;;;;;;35.77;14.53;;;8.30;99.90;;;;;;5048693;28;20048;-35
2022/03/29 08:52:41;;;;;;;37.50;14.23;;;8.30;99.90;;;;;;5043893;28;20095;-36
2022/03/29 08:55:08;;;;;;;37.60;14.27;;;8.30;99.90;;;;;;5046039;28;20049;-34
2022/03/29 08:57:36;;;;;;;31.33;13.83;;;8.30;99.90;;;;;;5031404;28;20488;-32
2022/03/29 09:00:04;;;;;;;34.10;12.90;;;8.30;99.90;;;;;;5051644;28;20044;-35
2022/03/29 09:02:33;;;;;;;35.03;13.53;;;8.40;99.90;;;;;;5036993;28;20552;-34
2022/03/29 09:05:16;;;;;;;33.43;13.57;;;8.40;99.90;;;;;;5052025;28;20427;-36
2022/03/29 09:08:08;;;;;;;27.10;12.87;;;8.40;99.90;;;;;;5044368;28;20036;-36
2022/03/29 09:10:51;;;;;;;40.50;14.03;;;8.40;99.90;;;;;;5056215;28;20048;-36
2022/03/29 09:13:28;;;;;;;35.80;13.17;;;8.50;99.90;;;;;;5062002;28;20048;-36
2022/03/29 09:15:59;;;;;;;28.50;12.20;;;8.50;99.90;;;;;;5061714;28;20049;-36
2022/03/29 09:18:26;;;;;;;29.38;12.85;;;8.60;99.90;;;;;;5046932;28;20076;-33
2022/03/29 09:21:12;;;;;;;32.20;12.03;;;8.60;99.90;;;;;;5061480;28;20036;-35
2022/03/29 09:23:38;;;;;;;31.63;12.13;;;8.60;99.90;;;;;;5057347;28;20056;-36
2022/03/29 09:26:05;;;;;;;28.13;12.10;;;8.80;99.90;;;;;;5063036;28;20143;-36
2022/03/29 09:28:38;;;;;;;36.40;12.70;;;8.80;99.90;;;;;;5041140;28;20396;-36
2022/03/29 09:31:22;;;;;;;28.30;11.83;;;8.80;99.90;;;;;;5059938;28;20480;-36
2022/03/29 09:33:48;;;;;;;32.67;11.90;;;8.90;99.90;;;;;;5060154;28;20044;-36
2022/03/29 09:36:20;;;;;;;33.43;11.90;;;8.90;99.90;;;;;;5054418;28;20083;-34
2022/03/29 09:38:48;;;;;;;31.80;11.13;;;9.00;99.90;;;;;;5056825;28;20697;-36
2022/03/29 09:41:30;;;;;;;32.37;12.50;;;9.00;99.90;;;;;;5062549;28;20072;-37
2022/03/29 09:44:03;;;;;;;29.30;11.93;;;9.20;99.90;;;;;;5052116;28;20565;-36
2022/03/29 09:46:29;;;;;;;29.37;10.30;;;9.10;99.90;;;;;;5031237;28;20616;-33
2022/03/29 09:49:00;;;;;;;28.70;11.67;;;9.20;99.90;;;;;;5049738;28;20099;-36
2022/03/29 09:51:27;;;;;;;39.37;12.53;;;9.30;99.90;;;;;;5048120;28;20097;-36
2022/03/29 09:54:01;;;;;;;34.37;10.90;;;9.20;99.90;;;;;;5060955;28;20053;-36
2022/03/29 09:56:30;;;;;;;35.93;11.13;;;9.30;99.90;;;;;;5044977;28;20897;-36
2022/03/29 09:59:11;;;;;;;35.80;11.77;;;9.30;99.90;;;;;;5058786;28;20045;-34
2022/03/29 10:01:57;;;;;;;20.25;7.53;;;9.30;99.90;;;;;;5055920;28;20128;-37
2022/03/29 10:04:33;;;;;;;28.73;10.27;;;9.30;99.90;;;;;;5057762;28;20041;-35
2022/03/29 10:07:04;;;;;;;33.60;10.43;;;9.30;99.90;;;;;;5043862;28;20040;-34
2022/03/29 10:09:33;;;;;;;30.20;11.05;;;9.40;99.90;;;;;;5060010;28;20403;-35
2022/03/29 10:11:59;;;;;;;23.27;10.23;;;9.40;99.90;;;;;;5055776;28;20072;-36
2022/03/29 10:14:27;;;;;;;27.43;10.90;;;9.40;99.90;;;;;;5061815;28;20047;-36
2022/03/29 10:16:56;;;;;;;28.80;10.13;;;9.40;99.90;;;;;;5042769;28;20040;-36
2022/03/29 10:19:23;;;;;;;27.57;9.23;;;9.50;99.90;;;;;;5062199;28;20047;-36
2022/03/29 10:21:50;;;;;;;24.77;9.63;;;9.50;99.90;;;;;;5062416;28;20144;-34
2022/03/29 10:24:18;;;;;;;28.80;9.23;;;9.60;99.90;;;;;;5062432;28;20126;-35
2022/03/29 10:26:47;;;;;;;27.10;9.27;;;9.60;99.90;;;;;;5034240;28;20480;-36
2022/03/29 10:29:12;;;;;;;31.57;9.43;;;9.70;99.90;;;;;;5061002;28;20083;-36
2022/03/29 10:31:48;;;;;;;30.80;10.00;;;9.80;99.90;;;;;;5048960;28;20092;-33
2022/03/29 10:34:25;;;;;;;31.07;10.50;;;9.90;99.90;;;;;;5062583;28;20527;-34
2022/03/29 10:37:12;;;;;;;27.03;9.80;;;10.00;99.90;;;;;;5045908;28;20048;-35
2022/03/29 10:39:56;;;;;;;24.90;9.27;;;10.00;99.90;;;;;;5060453;28;20048;-37
2022/03/29 10:42:38;;;;;;;28.93;9.77;;;10.10;99.90;;;;;;5054186;28;20040;-36
2022/03/29 10:45:17;;;;;;;26.77;9.80;;;10.10;99.90;;;;;;5057154;28;20567;-36
2022/03/29 10:48:04;;;;;;;27.73;9.63;;;10.20;99.90;;;;;;5039010;28;20471;-35
2022/03/29 10:50:54;;;;;;;24.30;9.77;;;10.20;99.90;;;;;;5053723;28;20079;-36
2022/03/29 10:53:26;;;;;;;19.20;7.85;;;10.20;99.90;;;;;;5060488;28;20098;-37
2022/03/29 10:56:11;;;;;;;;;;;10.30;99.90;;;;;;5051278;28;20044;-33
2022/03/29 10:58:56;;;;;;;26.23;9.70;;;10.30;99.90;;;;;;5046666;28;19928;-37
2022/03/29 11:01:22;;;;;;;25.60;9.93;;;10.30;99.90;;;;;;5053441;28;20119;-34
2022/03/29 11:04:23;;;;;;;32.67;10.20;;;10.40;99.90;;;;;;5057582;28;20117;-33
2022/03/29 11:07:07;;;;;;;32.05;10.45;;;10.40;99.90;;;;;;5040481;28;20712;-35
2022/03/29 11:09:34;;;;;;;30.67;10.43;;;10.50;99.90;;;;;;5053340;28;20412;-36
2022/03/29 11:12:00;;;;;;;29.13;10.47;;;10.50;99.90;;;;;;5057591;28;20063;-36
2022/03/29 11:14:29;;;;;;;26.03;10.50;;;10.50;99.90;;;;;;5055729;28;20056;-34
2022/03/29 11:17:16;;;;;;;24.83;9.87;;;10.60;99.90;;;;;;5044391;28;20162;-35
2022/03/29 11:19:54;;;;;;;31.37;10.53;;;10.60;99.90;;;;;;5057846;28;20101;-33
2022/03/29 11:22:29;;;;;;;29.13;10.30;;;10.60;99.90;;;;;;5060171;28;20052;-37
2022/03/29 11:24:58;;;;;;;24.07;9.40;;;10.60;99.90;;;;;;5059935;28;20048;-35
2022/03/29 11:27:33;;;;;;;25.73;10.00;;;10.60;99.90;;;;;;5042342;28;20574;-35
2022/03/29 11:30:01;;;;;;;25.37;9.70;;;10.60;99.90;;;;;;5061704;28;20052;-34
2022/03/29 11:32:27;;;;;;;25.98;10.50;;;10.60;99.90;;;;;;5053995;28;20484;-36
2022/03/29 11:34:58;;;;;;;24.50;9.77;;;10.50;99.90;;;;;;5059053;28;20568;-34
2022/03/29 11:37:37;;;;;;;21.58;9.50;;;10.50;99.90;;;;;;5046249;28;20166;-37
2022/03/29 11:40:05;;;;;;;23.60;9.57;;;10.40;99.90;;;;;;5058724;28;20056;-35
2022/03/29 11:42:44;;;;;;;25.83;9.73;;;10.40;99.90;;;;;;5058205;28;20040;-36
2022/03/29 11:45:11;;;;;;;21.23;8.73;;;10.30;99.90;;;;;;5040090;28;20063;-35
2022/03/29 11:47:37;;;;;;;27.67;9.60;;;10.40;99.90;;;;;;5033077;28;20045;-36
2022/03/29 11:50:03;;;;;;;21.25;9.63;;;10.20;99.90;;;;;;5046650;28;20037;-37
2022/03/29 11:52:36;;;;;;;25.35;9.65;;;10.20;99.90;;;;;;5048776;28;20424;-34
2022/03/29 11:55:15;;;;;;;23.23;9.63;;;10.20;99.90;;;;;;5059664;28;20041;-37
2022/03/29 11:57:41;;;;;;;23.20;9.37;;;10.20;99.90;;;;;;5037343;28;20102;-35
2022/03/29 12:00:24;;;;;;;25.17;9.33;;;10.20;99.90;;;;;;5054217;28;20553;-36
2022/03/29 12:02:51;;;;;;;28.27;9.20;;;10.20;99.90;;;;;;5059704;28;20049;-36
2022/03/29 12:05:25;;;;;;;25.85;9.45;;;10.20;99.90;;;;;;5051031;28;20135;-36
2022/03/29 12:08:05;;;;;;;26.15;9.48;;;10.20;99.90;;;;;;5045110;28;20554;-35
2022/03/29 12:10:35;;;;;;;27.17;9.27;;;10.20;99.90;;;;;;5051862;28;20071;-37
2022/03/29 12:13:01;;;;;;;30.63;9.57;;;10.20;99.90;;;;;;5043796;28;20508;-35
2022/03/29 12:15:27;;;;;;;24.57;9.97;;;10.20;99.90;;;;;;5044449;28;20602;-37
2022/03/29 12:20:47;;;;;;;25.58;9.02;;;10.20;99.90;;;;;;5057880;28;20145;-36
2022/03/29 12:23:27;;;;;;;24.17;9.07;;;10.20;99.90;;;;;;5062466;28;20045;-33
2022/03/29 12:25:55;;;;;;;25.80;9.10;;;10.30;99.90;;;;;;5055512;28;20047;-34
2022/03/29 12:28:22;;;;;;;27.13;9.57;;;10.30;99.90;;;;;;5039334;28;20047;-33
2022/03/29 12:30:49;;;;;;;27.55;10.10;;;10.30;99.90;;;;;;5052645;28;20052;-37
2022/03/29 12:33:16;;;;;;;27.70;9.32;;;10.40;99.90;;;;;;5062576;28;21204;-36
2022/03/29 12:35:41;;;;;;;27.80;10.07;;;10.40;99.90;;;;;;5052548;28;20405;-36
2022/03/29 12:38:11;;;;;;;27.58;10.07;;;10.50;99.90;;;;;;5045005;28;20048;-35
2022/03/29 12:40:37;;;;;;;29.80;10.63;;;10.50;99.90;;;;;;5050029;28;20052;-36
2022/03/29 12:43:05;;;;;;;22.80;9.82;;;10.50;99.90;;;;;;5055279;28;20542;-35
2022/03/29 12:45:33;;;;;;;29.87;10.97;;;10.50;99.90;;;;;;5062162;28;20052;-33
2022/03/29 12:48:00;;;;;;;24.33;10.60;;;10.50;99.90;;;;;;5044760;28;20056;-34